sensor_id;sensor_type;location;lat;lon;timestamp;P1;durP1;ratioP1;P2;durP2;ratioP2
3543;SDS011;1786;52.870;9.578;2024-02-15T00:00:53;15.83;;;14.13;;
3543;SDS011;1786;52.870;9.578;2024-02-15T00:03:20;17.40;;;14.60;;
3543;SDS011;1786;52.870;9.578;2024-02-15T00:05:48;18.93;;;16.47;;
3543;SDS011;1786;52.870;9.578;2024-02-15T00:08:14;22.93;;;15.70;;
3543;SDS011;1786;52.870;9.578;2024-02-15T00:10:42;19.37;;;15.73;;
3543;SDS011;1786;52.870;9.578;2024-02-15T00:13:08;17.00;;;14.17;;
3543;SDS011;1786;52.870;9.578;2024-02-15T00:15:35;16.20;;;14.20;;
3543;SDS011;1786;52.870;9.578;2024-02-15T00:18:03;20.47;;;14.80;;
3543;SDS011;1786;52.870;9.578;2024-02-15T00:20:30;17.97;;;15.27;;
3543;SDS011;1786;52.870;9.578;2024-02-15T00:23:00;18.30;;;15.43;;
3543;SDS011;1786;52.870;9.578;2024-02-15T00:25:27;17.77;;;15.87;;
3543;SDS011;1786;52.870;9.578;2024-02-15T00:27:54;17.73;;;15.07;;
3543;SDS011;1786;52.870;9.578;2024-02-15T00:30:21;16.53;;;14.73;;
3543;SDS011;1786;52.870;9.578;2024-02-15T00:32:48;17.97;;;15.97;;
3543;SDS011;1786;52.870;9.578;2024-02-15T00:35:15;22.63;;;16.20;;
3543;SDS011;1786;52.870;9.578;2024-02-15T00:37:42;17.47;;;14.20;;
3543;SDS011;1786;52.870;9.578;2024-02-15T00:40:09;17.93;;;15.00;;
3543;SDS011;1786;52.870;9.578;2024-02-15T00:42:36;21.00;;;17.23;;
3543;SDS011;1786;52.870;9.578;2024-02-15T00:45:03;22.80;;;16.90;;
3543;SDS011;1786;52.870;9.578;2024-02-15T00:47:31;18.60;;;15.80;;
3543;SDS011;1786;52.870;9.578;2024-02-15T00:49:59;20.97;;;15.83;;
3543;SDS011;1786;52.870;9.578;2024-02-15T00:52:26;18.00;;;15.17;;
3543;SDS011;1786;52.870;9.578;2024-02-15T00:54:53;16.50;;;14.60;;
3543;SDS011;1786;52.870;9.578;2024-02-15T00:57:19;19.70;;;15.47;;
3543;SDS011;1786;52.870;9.578;2024-02-15T00:59:46;17.20;;;14.90;;
3543;SDS011;1786;52.870;9.578;2024-02-15T01:02:14;18.03;;;15.60;;
3543;SDS011;1786;52.870;9.578;2024-02-15T01:04:40;19.47;;;14.93;;
3543;SDS011;1786;52.870;9.578;2024-02-15T01:07:09;17.43;;;15.03;;
3543;SDS011;1786;52.870;9.578;2024-02-15T01:09:36;20.60;;;18.43;;
3543;SDS011;1786;52.870;9.578;2024-02-15T01:12:02;21.93;;;16.67;;
3543;SDS011;1786;52.870;9.578;2024-02-15T01:14:32;17.80;;;15.97;;
3543;SDS011;1786;52.870;9.578;2024-02-15T01:16:59;23.00;;;18.10;;
3543;SDS011;1786;52.870;9.578;2024-02-15T01:19:26;27.20;;;18.07;;
3543;SDS011;1786;52.870;9.578;2024-02-15T01:21:53;21.77;;;16.87;;
3543;SDS011;1786;52.870;9.578;2024-02-15T01:24:20;19.50;;;17.40;;
3543;SDS011;1786;52.870;9.578;2024-02-15T01:26:47;20.30;;;16.57;;
3543;SDS011;1786;52.870;9.578;2024-02-15T01:29:15;22.17;;;17.03;;
3543;SDS011;1786;52.870;9.578;2024-02-15T01:31:42;19.60;;;17.07;;
3543;SDS011;1786;52.870;9.578;2024-02-15T01:34:09;23.63;;;18.97;;
3543;SDS011;1786;52.870;9.578;2024-02-15T01:36:36;23.60;;;16.10;;
3543;SDS011;1786;52.870;9.578;2024-02-15T01:39:02;24.50;;;16.90;;
3543;SDS011;1786;52.870;9.578;2024-02-15T01:41:29;20.83;;;16.43;;
3543;SDS011;1786;52.870;9.578;2024-02-15T01:43:56;20.27;;;16.40;;
3543;SDS011;1786;52.870;9.578;2024-02-15T01:46:23;26.93;;;17.87;;
3543;SDS011;1786;52.870;9.578;2024-02-15T01:48:51;25.67;;;17.03;;
3543;SDS011;1786;52.870;9.578;2024-02-15T01:51:18;19.40;;;16.70;;
3543;SDS011;1786;52.870;9.578;2024-02-15T01:53:45;20.10;;;16.77;;
3543;SDS011;1786;52.870;9.578;2024-02-15T01:56:13;18.93;;;16.87;;
3543;SDS011;1786;52.870;9.578;2024-02-15T01:58:41;22.73;;;15.93;;
3543;SDS011;1786;52.870;9.578;2024-02-15T02:01:09;19.77;;;17.10;;
3543;SDS011;1786;52.870;9.578;2024-02-15T02:03:36;20.13;;;16.83;;
3543;SDS011;1786;52.870;9.578;2024-02-15T02:06:03;20.13;;;17.00;;
3543;SDS011;1786;52.870;9.578;2024-02-15T02:08:31;19.30;;;17.17;;
3543;SDS011;1786;52.870;9.578;2024-02-15T02:10:58;20.30;;;15.27;;
3543;SDS011;1786;52.870;9.578;2024-02-15T02:13:25;17.37;;;15.33;;
3543;SDS011;1786;52.870;9.578;2024-02-15T02:15:53;19.77;;;15.27;;
3543;SDS011;1786;52.870;9.578;2024-02-15T02:18:19;18.90;;;15.17;;
3543;SDS011;1786;52.870;9.578;2024-02-15T02:20:46;16.27;;;14.57;;
3543;SDS011;1786;52.870;9.578;2024-02-15T02:23:13;19.90;;;15.47;;
3543;SDS011;1786;52.870;9.578;2024-02-15T02:25:42;22.33;;;15.63;;
3543;SDS011;1786;52.870;9.578;2024-02-15T02:28:10;20.40;;;17.50;;
3543;SDS011;1786;52.870;9.578;2024-02-15T02:30:37;22.63;;;15.90;;
3543;SDS011;1786;52.870;9.578;2024-02-15T02:33:10;19.43;;;16.90;;
3543;SDS011;1786;52.870;9.578;2024-02-15T02:35:45;18.57;;;15.70;;
3543;SDS011;1786;52.870;9.578;2024-02-15T02:38:12;21.07;;;16.03;;
3543;SDS011;1786;52.870;9.578;2024-02-15T02:40:40;17.50;;;15.60;;
3543;SDS011;1786;52.870;9.578;2024-02-15T02:43:07;17.60;;;14.90;;
3543;SDS011;1786;52.870;9.578;2024-02-15T02:45:33;17.93;;;15.50;;
3543;SDS011;1786;52.870;9.578;2024-02-15T02:48:01;18.80;;;15.70;;
3543;SDS011;1786;52.870;9.578;2024-02-15T02:50:27;20.80;;;17.83;;
3543;SDS011;1786;52.870;9.578;2024-02-15T02:52:54;16.13;;;14.40;;
3543;SDS011;1786;52.870;9.578;2024-02-15T02:55:22;16.70;;;14.50;;
3543;SDS011;1786;52.870;9.578;2024-02-15T02:57:49;17.20;;;15.23;;
3543;SDS011;1786;52.870;9.578;2024-02-15T03:00:15;20.07;;;15.07;;
3543;SDS011;1786;52.870;9.578;2024-02-15T03:02:43;18.27;;;16.37;;
3543;SDS011;1786;52.870;9.578;2024-02-15T03:05:11;16.33;;;14.63;;
3543;SDS011;1786;52.870;9.578;2024-02-15T03:07:39;17.47;;;15.10;;
3543;SDS011;1786;52.870;9.578;2024-02-15T03:10:10;18.23;;;14.87;;
3543;SDS011;1786;52.870;9.578;2024-02-15T03:12:41;17.93;;;15.67;;
3543;SDS011;1786;52.870;9.578;2024-02-15T03:15:14;17.17;;;13.90;;
3543;SDS011;1786;52.870;9.578;2024-02-15T03:17:41;17.10;;;15.40;;
3543;SDS011;1786;52.870;9.578;2024-02-15T03:20:09;17.40;;;15.60;;
3543;SDS011;1786;52.870;9.578;2024-02-15T03:25:26;17.90;;;14.60;;
3543;SDS011;1786;52.870;9.578;2024-02-15T03:27:56;20.33;;;17.07;;
3543;SDS011;1786;52.870;9.578;2024-02-15T03:30:30;18.77;;;16.60;;
3543;SDS011;1786;52.870;9.578;2024-02-15T03:32:58;19.07;;;16.60;;
3543;SDS011;1786;52.870;9.578;2024-02-15T03:35:26;18.20;;;16.30;;
3543;SDS011;1786;52.870;9.578;2024-02-15T03:37:55;17.17;;;15.37;;
3543;SDS011;1786;52.870;9.578;2024-02-15T03:40:22;19.80;;;16.80;;
3543;SDS011;1786;52.870;9.578;2024-02-15T03:42:53;17.00;;;15.27;;
3543;SDS011;1786;52.870;9.578;2024-02-15T03:45:20;20.23;;;17.23;;
3543;SDS011;1786;52.870;9.578;2024-02-15T03:47:47;16.87;;;15.07;;
3543;SDS011;1786;52.870;9.578;2024-02-15T03:50:16;18.60;;;15.23;;
3543;SDS011;1786;52.870;9.578;2024-02-15T03:52:45;21.90;;;17.30;;
3543;SDS011;1786;52.870;9.578;2024-02-15T03:55:12;17.73;;;15.93;;
3543;SDS011;1786;52.870;9.578;2024-02-15T03:57:39;19.40;;;17.37;;
3543;SDS011;1786;52.870;9.578;2024-02-15T04:00:10;17.97;;;15.50;;
3543;SDS011;1786;52.870;9.578;2024-02-15T04:02:38;20.47;;;15.17;;
3543;SDS011;1786;52.870;9.578;2024-02-15T04:05:07;19.63;;;15.50;;
3543;SDS011;1786;52.870;9.578;2024-02-15T04:07:36;17.23;;;14.50;;
3543;SDS011;1786;52.870;9.578;2024-02-15T04:10:06;17.00;;;14.97;;
3543;SDS011;1786;52.870;9.578;2024-02-15T04:12:47;20.73;;;15.53;;
3543;SDS011;1786;52.870;9.578;2024-02-15T04:15:15;17.50;;;15.03;;
3543;SDS011;1786;52.870;9.578;2024-02-15T04:17:44;16.23;;;14.50;;
3543;SDS011;1786;52.870;9.578;2024-02-15T04:20:12;23.20;;;16.67;;
3543;SDS011;1786;52.870;9.578;2024-02-15T04:22:41;18.43;;;15.70;;
3543;SDS011;1786;52.870;9.578;2024-02-15T04:25:09;19.23;;;14.97;;
3543;SDS011;1786;52.870;9.578;2024-02-15T04:27:37;18.40;;;15.37;;
3543;SDS011;1786;52.870;9.578;2024-02-15T04:30:03;19.27;;;14.50;;
3543;SDS011;1786;52.870;9.578;2024-02-15T04:32:31;18.70;;;14.67;;
3543;SDS011;1786;52.870;9.578;2024-02-15T04:35:01;21.37;;;13.80;;
3543;SDS011;1786;52.870;9.578;2024-02-15T04:37:29;18.67;;;15.40;;
3543;SDS011;1786;52.870;9.578;2024-02-15T04:39:59;15.93;;;14.17;;
3543;SDS011;1786;52.870;9.578;2024-02-15T04:42:34;16.53;;;13.80;;
3543;SDS011;1786;52.870;9.578;2024-02-15T04:45:02;19.60;;;14.33;;
3543;SDS011;1786;52.870;9.578;2024-02-15T04:47:30;17.93;;;15.03;;
3543;SDS011;1786;52.870;9.578;2024-02-15T04:49:57;16.53;;;13.50;;
3543;SDS011;1786;52.870;9.578;2024-02-15T04:52:24;17.53;;;13.50;;
3543;SDS011;1786;52.870;9.578;2024-02-15T04:54:51;24.97;;;14.20;;
3543;SDS011;1786;52.870;9.578;2024-02-15T04:57:20;18.90;;;13.97;;
3543;SDS011;1786;52.870;9.578;2024-02-15T04:59:47;17.07;;;14.40;;
3543;SDS011;1786;52.870;9.578;2024-02-15T05:02:15;17.53;;;14.70;;
3543;SDS011;1786;52.870;9.578;2024-02-15T05:04:42;18.67;;;15.37;;
3543;SDS011;1786;52.870;9.578;2024-02-15T05:07:09;16.27;;;13.77;;
3543;SDS011;1786;52.870;9.578;2024-02-15T05:09:37;18.93;;;12.77;;
3543;SDS011;1786;52.870;9.578;2024-02-15T05:12:03;17.07;;;13.17;;
3543;SDS011;1786;52.870;9.578;2024-02-15T05:14:31;19.93;;;13.03;;
3543;SDS011;1786;52.870;9.578;2024-02-15T05:16:58;15.37;;;13.77;;
3543;SDS011;1786;52.870;9.578;2024-02-15T05:19:25;21.90;;;12.10;;
3543;SDS011;1786;52.870;9.578;2024-02-15T05:21:53;12.80;;;11.10;;
3543;SDS011;1786;52.870;9.578;2024-02-15T05:24:21;16.20;;;13.17;;
3543;SDS011;1786;52.870;9.578;2024-02-15T05:26:48;13.80;;;12.23;;
3543;SDS011;1786;52.870;9.578;2024-02-15T05:29:15;13.50;;;11.50;;
3543;SDS011;1786;52.870;9.578;2024-02-15T05:31:43;13.33;;;12.00;;
3543;SDS011;1786;52.870;9.578;2024-02-15T05:34:10;14.93;;;12.93;;
3543;SDS011;1786;52.870;9.578;2024-02-15T05:36:41;17.90;;;13.57;;
3543;SDS011;1786;52.870;9.578;2024-02-15T05:39:07;19.07;;;12.00;;
3543;SDS011;1786;52.870;9.578;2024-02-15T05:41:35;15.67;;;11.60;;
3543;SDS011;1786;52.870;9.578;2024-02-15T05:44:02;13.57;;;12.10;;
3543;SDS011;1786;52.870;9.578;2024-02-15T05:46:34;12.17;;;10.93;;
3543;SDS011;1786;52.870;9.578;2024-02-15T05:49:05;13.47;;;11.33;;
3543;SDS011;1786;52.870;9.578;2024-02-15T05:51:33;13.57;;;11.77;;
3543;SDS011;1786;52.870;9.578;2024-02-15T05:54:00;12.60;;;11.30;;
3543;SDS011;1786;52.870;9.578;2024-02-15T05:56:27;14.87;;;11.83;;
3543;SDS011;1786;52.870;9.578;2024-02-15T05:58:55;14.17;;;12.70;;
3543;SDS011;1786;52.870;9.578;2024-02-15T06:01:22;13.10;;;11.83;;
3543;SDS011;1786;52.870;9.578;2024-02-15T06:03:50;13.53;;;12.17;;
3543;SDS011;1786;52.870;9.578;2024-02-15T06:06:21;13.27;;;11.87;;
3543;SDS011;1786;52.870;9.578;2024-02-15T06:08:48;13.60;;;11.67;;
3543;SDS011;1786;52.870;9.578;2024-02-15T06:11:18;15.67;;;12.20;;
3543;SDS011;1786;52.870;9.578;2024-02-15T06:13:46;13.50;;;12.20;;
3543;SDS011;1786;52.870;9.578;2024-02-15T06:16:13;14.97;;;12.50;;
3543;SDS011;1786;52.870;9.578;2024-02-15T06:18:39;13.00;;;11.63;;
3543;SDS011;1786;52.870;9.578;2024-02-15T06:21:07;13.90;;;12.50;;
3543;SDS011;1786;52.870;9.578;2024-02-15T06:23:35;13.50;;;12.07;;
3543;SDS011;1786;52.870;9.578;2024-02-15T06:26:02;14.57;;;13.03;;
3543;SDS011;1786;52.870;9.578;2024-02-15T06:28:29;13.30;;;11.90;;
3543;SDS011;1786;52.870;9.578;2024-02-15T06:31:14;15.13;;;12.17;;
3543;SDS011;1786;52.870;9.578;2024-02-15T06:33:59;15.93;;;12.10;;
3543;SDS011;1786;52.870;9.578;2024-02-15T06:36:55;14.23;;;12.73;;
3543;SDS011;1786;52.870;9.578;2024-02-15T06:39:41;15.77;;;12.43;;
3543;SDS011;1786;52.870;9.578;2024-02-15T06:42:10;14.20;;;12.70;;
3543;SDS011;1786;52.870;9.578;2024-02-15T06:44:38;16.87;;;13.10;;
3543;SDS011;1786;52.870;9.578;2024-02-15T06:47:06;25.60;;;18.10;;
3543;SDS011;1786;52.870;9.578;2024-02-15T06:49:33;19.30;;;15.77;;
3543;SDS011;1786;52.870;9.578;2024-02-15T06:52:01;24.67;;;18.73;;
3543;SDS011;1786;52.870;9.578;2024-02-15T06:54:28;16.23;;;13.87;;
3543;SDS011;1786;52.870;9.578;2024-02-15T06:56:55;18.93;;;15.37;;
3543;SDS011;1786;52.870;9.578;2024-02-15T06:59:22;19.17;;;14.43;;
3543;SDS011;1786;52.870;9.578;2024-02-15T07:01:49;15.50;;;13.70;;
3543;SDS011;1786;52.870;9.578;2024-02-15T07:04:18;15.13;;;13.53;;
3543;SDS011;1786;52.870;9.578;2024-02-15T07:06:47;17.70;;;15.47;;
3543;SDS011;1786;52.870;9.578;2024-02-15T07:09:15;17.17;;;14.70;;
3543;SDS011;1786;52.870;9.578;2024-02-15T07:11:44;21.50;;;16.30;;
3543;SDS011;1786;52.870;9.578;2024-02-15T07:14:17;18.00;;;16.00;;
3543;SDS011;1786;52.870;9.578;2024-02-15T07:16:45;19.47;;;16.00;;
3543;SDS011;1786;52.870;9.578;2024-02-15T07:19:12;22.63;;;15.80;;
3543;SDS011;1786;52.870;9.578;2024-02-15T07:21:40;21.67;;;15.33;;
3543;SDS011;1786;52.870;9.578;2024-02-15T07:24:07;19.20;;;15.27;;
3543;SDS011;1786;52.870;9.578;2024-02-15T07:26:34;17.13;;;14.07;;
3543;SDS011;1786;52.870;9.578;2024-02-15T07:29:02;19.50;;;15.90;;
3543;SDS011;1786;52.870;9.578;2024-02-15T07:31:32;19.10;;;15.30;;
3543;SDS011;1786;52.870;9.578;2024-02-15T07:33:59;19.93;;;14.57;;
3543;SDS011;1786;52.870;9.578;2024-02-15T07:36:27;20.80;;;14.80;;
3543;SDS011;1786;52.870;9.578;2024-02-15T07:38:54;18.27;;;13.87;;
3543;SDS011;1786;52.870;9.578;2024-02-15T07:41:24;21.10;;;14.10;;
3543;SDS011;1786;52.870;9.578;2024-02-15T07:43:51;23.97;;;17.80;;
3543;SDS011;1786;52.870;9.578;2024-02-15T07:46:21;21.40;;;16.17;;
3543;SDS011;1786;52.870;9.578;2024-02-15T07:48:48;23.10;;;15.70;;
3543;SDS011;1786;52.870;9.578;2024-02-15T07:51:16;22.77;;;16.23;;
3543;SDS011;1786;52.870;9.578;2024-02-15T07:53:46;19.70;;;16.03;;
3543;SDS011;1786;52.870;9.578;2024-02-15T07:56:14;23.40;;;16.00;;
3543;SDS011;1786;52.870;9.578;2024-02-15T07:58:42;17.50;;;14.47;;
3543;SDS011;1786;52.870;9.578;2024-02-15T08:01:19;24.13;;;17.63;;
3543;SDS011;1786;52.870;9.578;2024-02-15T08:03:50;21.00;;;16.50;;
3543;SDS011;1786;52.870;9.578;2024-02-15T08:06:17;25.10;;;17.23;;
3543;SDS011;1786;52.870;9.578;2024-02-15T08:08:47;26.63;;;17.80;;
3543;SDS011;1786;52.870;9.578;2024-02-15T08:11:14;27.57;;;18.77;;
3543;SDS011;1786;52.870;9.578;2024-02-15T08:13:48;24.30;;;18.27;;
3543;SDS011;1786;52.870;9.578;2024-02-15T08:16:17;26.17;;;18.77;;
3543;SDS011;1786;52.870;9.578;2024-02-15T08:18:45;25.77;;;17.93;;
3543;SDS011;1786;52.870;9.578;2024-02-15T08:21:13;24.53;;;19.00;;
3543;SDS011;1786;52.870;9.578;2024-02-15T08:23:41;23.10;;;17.70;;
3543;SDS011;1786;52.870;9.578;2024-02-15T08:26:08;24.80;;;18.43;;
3543;SDS011;1786;52.870;9.578;2024-02-15T08:28:37;35.53;;;21.27;;
3543;SDS011;1786;52.870;9.578;2024-02-15T08:31:04;26.40;;;18.97;;
3543;SDS011;1786;52.870;9.578;2024-02-15T08:33:31;28.60;;;17.87;;
3543;SDS011;1786;52.870;9.578;2024-02-15T08:35:58;27.70;;;19.17;;
3543;SDS011;1786;52.870;9.578;2024-02-15T08:38:28;33.03;;;19.53;;
3543;SDS011;1786;52.870;9.578;2024-02-15T08:40:54;26.93;;;20.30;;
3543;SDS011;1786;52.870;9.578;2024-02-15T08:43:21;33.80;;;22.17;;
3543;SDS011;1786;52.870;9.578;2024-02-15T08:45:48;30.70;;;19.83;;
3543;SDS011;1786;52.870;9.578;2024-02-15T08:48:15;30.97;;;20.97;;
3543;SDS011;1786;52.870;9.578;2024-02-15T08:50:41;28.63;;;19.80;;
3543;SDS011;1786;52.870;9.578;2024-02-15T08:53:08;30.37;;;21.70;;
3543;SDS011;1786;52.870;9.578;2024-02-15T08:55:35;36.33;;;22.27;;
3543;SDS011;1786;52.870;9.578;2024-02-15T08:58:02;29.07;;;21.03;;
3543;SDS011;1786;52.870;9.578;2024-02-15T09:00:30;30.43;;;20.27;;
3543;SDS011;1786;52.870;9.578;2024-02-15T09:02:57;36.27;;;23.07;;
3543;SDS011;1786;52.870;9.578;2024-02-15T09:05:24;30.10;;;19.60;;
3543;SDS011;1786;52.870;9.578;2024-02-15T09:07:53;33.70;;;20.20;;
3543;SDS011;1786;52.870;9.578;2024-02-15T09:10:20;38.37;;;20.90;;
3543;SDS011;1786;52.870;9.578;2024-02-15T09:12:49;27.27;;;20.20;;
3543;SDS011;1786;52.870;9.578;2024-02-15T09:15:16;30.33;;;20.50;;
3543;SDS011;1786;52.870;9.578;2024-02-15T09:17:44;34.60;;;21.40;;
3543;SDS011;1786;52.870;9.578;2024-02-15T09:20:14;32.07;;;21.30;;
3543;SDS011;1786;52.870;9.578;2024-02-15T09:25:17;27.80;;;18.07;;
3543;SDS011;1786;52.870;9.578;2024-02-15T09:27:44;27.43;;;18.87;;
3543;SDS011;1786;52.870;9.578;2024-02-15T09:30:17;26.47;;;18.23;;
3543;SDS011;1786;52.870;9.578;2024-02-15T09:32:44;23.03;;;16.77;;
3543;SDS011;1786;52.870;9.578;2024-02-15T09:35:12;22.93;;;17.70;;
3543;SDS011;1786;52.870;9.578;2024-02-15T09:37:47;22.73;;;17.10;;
3543;SDS011;1786;52.870;9.578;2024-02-15T09:40:17;23.27;;;16.60;;
3543;SDS011;1786;52.870;9.578;2024-02-15T09:42:46;25.57;;;17.27;;
3543;SDS011;1786;52.870;9.578;2024-02-15T09:45:13;22.47;;;15.53;;
3543;SDS011;1786;52.870;9.578;2024-02-15T09:47:42;20.90;;;15.30;;
3543;SDS011;1786;52.870;9.578;2024-02-15T09:50:10;26.20;;;17.73;;
3543;SDS011;1786;52.870;9.578;2024-02-15T09:52:43;18.70;;;15.77;;
3543;SDS011;1786;52.870;9.578;2024-02-15T09:55:11;23.23;;;16.37;;
3543;SDS011;1786;52.870;9.578;2024-02-15T09:57:43;24.20;;;15.37;;
3543;SDS011;1786;52.870;9.578;2024-02-15T10:00:11;18.90;;;14.07;;
3543;SDS011;1786;52.870;9.578;2024-02-15T10:02:43;28.10;;;14.83;;
3543;SDS011;1786;52.870;9.578;2024-02-15T10:05:12;21.80;;;14.63;;
3543;SDS011;1786;52.870;9.578;2024-02-15T10:07:39;22.83;;;13.73;;
3543;SDS011;1786;52.870;9.578;2024-02-15T10:10:19;26.10;;;14.27;;
3543;SDS011;1786;52.870;9.578;2024-02-15T10:12:47;21.07;;;12.43;;
3543;SDS011;1786;52.870;9.578;2024-02-15T10:15:36;24.07;;;14.63;;
3543;SDS011;1786;52.870;9.578;2024-02-15T10:18:04;19.90;;;14.07;;
3543;SDS011;1786;52.870;9.578;2024-02-15T10:20:34;22.77;;;13.80;;
3543;SDS011;1786;52.870;9.578;2024-02-15T10:23:13;27.50;;;14.60;;
3543;SDS011;1786;52.870;9.578;2024-02-15T10:25:44;22.60;;;14.20;;
3543;SDS011;1786;52.870;9.578;2024-02-15T10:28:11;19.53;;;14.57;;
3543;SDS011;1786;52.870;9.578;2024-02-15T10:30:39;21.73;;;14.20;;
3543;SDS011;1786;52.870;9.578;2024-02-15T10:33:10;21.97;;;15.03;;
3543;SDS011;1786;52.870;9.578;2024-02-15T10:35:46;19.73;;;16.00;;
3543;SDS011;1786;52.870;9.578;2024-02-15T10:38:13;18.60;;;14.97;;
3543;SDS011;1786;52.870;9.578;2024-02-15T10:40:44;24.80;;;15.47;;
3543;SDS011;1786;52.870;9.578;2024-02-15T10:43:13;20.87;;;13.60;;
3543;SDS011;1786;52.870;9.578;2024-02-15T10:45:43;21.50;;;13.33;;
3543;SDS011;1786;52.870;9.578;2024-02-15T10:48:11;22.37;;;13.27;;
3543;SDS011;1786;52.870;9.578;2024-02-15T10:50:40;17.43;;;12.40;;
3543;SDS011;1786;52.870;9.578;2024-02-15T10:56:02;16.53;;;11.47;;
3543;SDS011;1786;52.870;9.578;2024-02-15T10:58:51;19.00;;;13.37;;
3543;SDS011;1786;52.870;9.578;2024-02-15T11:01:26;17.13;;;13.77;;
3543;SDS011;1786;52.870;9.578;2024-02-15T11:03:59;17.80;;;12.70;;
3543;SDS011;1786;52.870;9.578;2024-02-15T11:06:30;18.40;;;10.10;;
3543;SDS011;1786;52.870;9.578;2024-02-15T11:09:01;11.23;;;10.00;;
3543;SDS011;1786;52.870;9.578;2024-02-15T11:11:29;12.00;;;10.77;;
3543;SDS011;1786;52.870;9.578;2024-02-15T11:17:02;11.03;;;8.07;;
3543;SDS011;1786;52.870;9.578;2024-02-15T11:22:07;9.47;;;7.90;;
3543;SDS011;1786;52.870;9.578;2024-02-15T11:24:37;10.13;;;6.33;;
3543;SDS011;1786;52.870;9.578;2024-02-15T11:27:23;7.93;;;6.97;;
3543;SDS011;1786;52.870;9.578;2024-02-15T11:29:53;9.37;;;5.87;;
3543;SDS011;1786;52.870;9.578;2024-02-15T11:32:39;4.60;;;4.17;;
3543;SDS011;1786;52.870;9.578;2024-02-15T11:35:07;5.47;;;5.07;;
3543;SDS011;1786;52.870;9.578;2024-02-15T11:40:15;11.33;;;6.10;;
3543;SDS011;1786;52.870;9.578;2024-02-15T11:42:46;6.13;;;4.80;;
3543;SDS011;1786;52.870;9.578;2024-02-15T11:45:14;4.70;;;4.40;;
3543;SDS011;1786;52.870;9.578;2024-02-15T11:47:48;11.20;;;4.40;;
3543;SDS011;1786;52.870;9.578;2024-02-15T11:50:18;35.37;;;15.17;;
3543;SDS011;1786;52.870;9.578;2024-02-15T11:52:47;5.83;;;5.07;;
3543;SDS011;1786;52.870;9.578;2024-02-15T11:55:19;4.97;;;4.37;;
3543;SDS011;1786;52.870;9.578;2024-02-15T11:58:01;10.47;;;4.73;;
3543;SDS011;1786;52.870;9.578;2024-02-15T12:00:32;4.47;;;3.93;;
3543;SDS011;1786;52.870;9.578;2024-02-15T12:03:17;5.53;;;5.03;;
3543;SDS011;1786;52.870;9.578;2024-02-15T12:06:03;10.17;;;5.10;;
3543;SDS011;1786;52.870;9.578;2024-02-15T12:08:51;8.53;;;4.73;;
3543;SDS011;1786;52.870;9.578;2024-02-15T12:11:38;5.17;;;4.07;;
3543;SDS011;1786;52.870;9.578;2024-02-15T12:14:24;17.40;;;4.80;;
3543;SDS011;1786;52.870;9.578;2024-02-15T12:17:11;5.53;;;4.57;;
3543;SDS011;1786;52.870;9.578;2024-02-15T12:19:59;6.43;;;4.37;;
3543;SDS011;1786;52.870;9.578;2024-02-15T12:22:37;7.53;;;4.40;;
3543;SDS011;1786;52.870;9.578;2024-02-15T12:25:07;6.30;;;3.10;;
3543;SDS011;1786;52.870;9.578;2024-02-15T12:27:45;6.27;;;3.50;;
3543;SDS011;1786;52.870;9.578;2024-02-15T12:30:13;4.53;;;4.10;;
3543;SDS011;1786;52.870;9.578;2024-02-15T12:32:41;10.27;;;3.30;;
3543;SDS011;1786;52.870;9.578;2024-02-15T12:35:11;8.93;;;5.00;;
3543;SDS011;1786;52.870;9.578;2024-02-15T12:37:43;3.60;;;3.20;;
3543;SDS011;1786;52.870;9.578;2024-02-15T12:40:13;5.23;;;4.20;;
3543;SDS011;1786;52.870;9.578;2024-02-15T12:42:44;4.60;;;3.63;;
3543;SDS011;1786;52.870;9.578;2024-02-15T12:45:16;4.80;;;4.40;;
3543;SDS011;1786;52.870;9.578;2024-02-15T12:47:48;7.10;;;4.37;;
3543;SDS011;1786;52.870;9.578;2024-02-15T12:50:16;3.70;;;3.30;;
3543;SDS011;1786;52.870;9.578;2024-02-15T12:52:45;3.90;;;3.60;;
3543;SDS011;1786;52.870;9.578;2024-02-15T12:55:15;4.17;;;3.03;;
3543;SDS011;1786;52.870;9.578;2024-02-15T12:57:44;3.83;;;3.53;;
3543;SDS011;1786;52.870;9.578;2024-02-15T13:00:12;5.30;;;4.07;;
3543;SDS011;1786;52.870;9.578;2024-02-15T13:02:45;5.03;;;3.37;;
3543;SDS011;1786;52.870;9.578;2024-02-15T13:05:19;3.60;;;3.30;;
3543;SDS011;1786;52.870;9.578;2024-02-15T13:07:47;6.67;;;4.13;;
3543;SDS011;1786;52.870;9.578;2024-02-15T13:10:17;4.07;;;3.30;;
3543;SDS011;1786;52.870;9.578;2024-02-15T13:12:44;4.30;;;2.93;;
3543;SDS011;1786;52.870;9.578;2024-02-15T13:15:12;3.97;;;3.70;;
3543;SDS011;1786;52.870;9.578;2024-02-15T13:17:48;6.13;;;3.50;;
3543;SDS011;1786;52.870;9.578;2024-02-15T13:20:18;5.33;;;3.60;;
3543;SDS011;1786;52.870;9.578;2024-02-15T13:22:47;3.97;;;3.67;;
3543;SDS011;1786;52.870;9.578;2024-02-15T13:25:16;6.20;;;3.77;;
3543;SDS011;1786;52.870;9.578;2024-02-15T13:27:43;7.53;;;4.27;;
3543;SDS011;1786;52.870;9.578;2024-02-15T13:30:10;7.70;;;5.00;;
3543;SDS011;1786;52.870;9.578;2024-02-15T13:32:38;4.10;;;3.63;;
3543;SDS011;1786;52.870;9.578;2024-02-15T13:35:08;8.13;;;4.20;;
3543;SDS011;1786;52.870;9.578;2024-02-15T13:37:48;6.57;;;3.50;;
3543;SDS011;1786;52.870;9.578;2024-02-15T13:40:19;3.70;;;3.40;;
3543;SDS011;1786;52.870;9.578;2024-02-15T13:42:50;4.10;;;2.87;;
3543;SDS011;1786;52.870;9.578;2024-02-15T13:45:22;6.47;;;2.60;;
3543;SDS011;1786;52.870;9.578;2024-02-15T13:47:50;8.00;;;3.33;;
3543;SDS011;1786;52.870;9.578;2024-02-15T13:50:19;5.07;;;3.10;;
3543;SDS011;1786;52.870;9.578;2024-02-15T13:52:46;4.00;;;2.67;;
3543;SDS011;1786;52.870;9.578;2024-02-15T13:55:14;4.40;;;2.90;;
3543;SDS011;1786;52.870;9.578;2024-02-15T13:57:43;4.00;;;3.07;;
3543;SDS011;1786;52.870;9.578;2024-02-15T14:00:13;5.53;;;3.27;;
3543;SDS011;1786;52.870;9.578;2024-02-15T14:02:49;4.03;;;2.40;;
3543;SDS011;1786;52.870;9.578;2024-02-15T14:05:16;5.90;;;2.53;;
3543;SDS011;1786;52.870;9.578;2024-02-15T14:07:49;2.73;;;2.63;;
3543;SDS011;1786;52.870;9.578;2024-02-15T14:10:19;2.77;;;2.57;;
3543;SDS011;1786;52.870;9.578;2024-02-15T14:12:47;6.53;;;2.17;;
3543;SDS011;1786;52.870;9.578;2024-02-15T14:15:15;3.83;;;2.70;;
3543;SDS011;1786;52.870;9.578;2024-02-15T14:17:44;3.03;;;2.83;;
3543;SDS011;1786;52.870;9.578;2024-02-15T14:20:12;2.97;;;2.40;;
3543;SDS011;1786;52.870;9.578;2024-02-15T14:22:45;3.50;;;2.40;;
3543;SDS011;1786;52.870;9.578;2024-02-15T14:25:16;3.63;;;2.80;;
3543;SDS011;1786;52.870;9.578;2024-02-15T14:27:42;4.03;;;3.07;;
3543;SDS011;1786;52.870;9.578;2024-02-15T14:30:09;6.63;;;3.43;;
3543;SDS011;1786;52.870;9.578;2024-02-15T14:32:55;2.90;;;2.33;;
3543;SDS011;1786;52.870;9.578;2024-02-15T14:35:32;2.27;;;2.17;;
3543;SDS011;1786;52.870;9.578;2024-02-15T14:38:07;7.33;;;2.47;;
3543;SDS011;1786;52.870;9.578;2024-02-15T14:40:37;6.73;;;2.90;;
3543;SDS011;1786;52.870;9.578;2024-02-15T14:43:09;3.70;;;2.40;;
3543;SDS011;1786;52.870;9.578;2024-02-15T14:45:44;4.43;;;2.70;;
3543;SDS011;1786;52.870;9.578;2024-02-15T14:48:11;6.27;;;3.63;;
3543;SDS011;1786;52.870;9.578;2024-02-15T14:50:41;5.17;;;2.70;;
3543;SDS011;1786;52.870;9.578;2024-02-15T14:53:08;4.33;;;2.37;;
3543;SDS011;1786;52.870;9.578;2024-02-15T14:55:36;2.90;;;2.70;;
3543;SDS011;1786;52.870;9.578;2024-02-15T14:58:06;5.23;;;2.20;;
3543;SDS011;1786;52.870;9.578;2024-02-15T15:00:39;2.70;;;2.50;;
3543;SDS011;1786;52.870;9.578;2024-02-15T15:03:08;6.40;;;3.37;;
3543;SDS011;1786;52.870;9.578;2024-02-15T15:05:35;10.80;;;3.67;;
3543;SDS011;1786;52.870;9.578;2024-02-15T15:08:20;4.13;;;2.70;;
3543;SDS011;1786;52.870;9.578;2024-02-15T15:11:06;4.57;;;3.47;;
3543;SDS011;1786;52.870;9.578;2024-02-15T15:13:51;8.30;;;3.50;;
3543;SDS011;1786;52.870;9.578;2024-02-15T15:16:18;3.60;;;2.40;;
3543;SDS011;1786;52.870;9.578;2024-02-15T15:18:47;4.83;;;2.70;;
3543;SDS011;1786;52.870;9.578;2024-02-15T15:21:15;4.20;;;2.50;;
3543;SDS011;1786;52.870;9.578;2024-02-15T15:23:43;7.37;;;3.00;;
3543;SDS011;1786;52.870;9.578;2024-02-15T15:26:10;5.43;;;2.97;;